Time;durP1;ratioP1;P1;durP2;ratioP2;P2;SDS_P1;SDS_P2;PMS_P1;PMS_P2;Temp;Humidity;BMP_temperature;BMP_pressure;BME280_temperature;BME280_humidity;BME280_pressure;Samples;Min_cycle;Max_cycle;Signal;HPM_P1;HPM_P2
2021/01/19 00:00:21;;;;;;;50.60;29.20;;;-0.40;98.00;;;;;;6226530;28;20448;-55
2021/01/19 00:03:23;;;;;;;41.13;29.47;;;-0.30;98.00;;;;;;6226383;28;20454;-55
2021/01/19 00:06:25;;;;;;;48.10;28.23;;;-0.30;97.90;;;;;;6226292;28;20444;-54
2021/01/19 00:09:28;;;;;;;51.70;29.97;;;-0.20;97.70;;;;;;6212308;28;20483;-55
2021/01/19 00:12:30;;;;;;;44.80;29.17;;;-0.20;97.60;;;;;;6217530;28;20441;-55
2021/01/19 00:15:33;;;;;;;47.10;29.87;;;-0.30;97.30;;;;;;6202577;28;20456;-54
2021/01/19 00:18:35;;;;;;;43.63;28.40;;;-0.30;97.50;;;;;;6211596;28;20467;-55
2021/01/19 00:21:37;;;;;;;45.80;29.20;;;-0.20;97.60;;;;;;6212320;28;20493;-55
2021/01/19 00:24:39;;;;;;;49.13;29.60;;;-0.20;97.60;;;;;;6210642;28;20552;-53
2021/01/19 00:27:42;;;;;;;59.87;33.80;;;-0.20;97.70;;;;;;6206245;28;20526;-53
2021/01/19 00:30:44;;;;;;;51.73;30.67;;;-0.20;97.80;;;;;;6199499;28;20473;-54
2021/01/19 00:33:47;;;;;;;43.40;29.23;;;-0.20;97.80;;;;;;6209567;28;20475;-53
2021/01/19 00:36:49;;;;;;;47.47;29.90;;;-0.20;97.90;;;;;;6212464;28;20473;-53
2021/01/19 00:39:51;;;;;;;45.70;30.40;;;-0.20;97.90;;;;;;6210410;28;20523;-54
2021/01/19 00:42:55;;;;;;;48.30;27.17;;;-0.20;97.70;;;;;;6212819;28;20468;-53
2021/01/19 00:45:57;;;;;;;42.50;27.27;;;-0.30;97.60;;;;;;6210571;28;20479;-54
2021/01/19 00:49:00;;;;;;;47.83;27.90;;;-0.30;97.80;;;;;;6212022;28;20508;-54
2021/01/19 00:52:02;;;;;;;44.23;26.73;;;-0.40;97.80;;;;;;6221091;28;20475;-54
2021/01/19 00:55:05;;;;;;;46.67;27.00;;;-0.40;97.80;;;;;;6225155;28;20963;-54
2021/01/19 00:58:08;;;;;;;36.37;26.00;;;-0.40;97.70;;;;;;6225390;28;20482;-54
2021/01/19 01:01:10;;;;;;;44.37;26.40;;;-0.50;97.60;;;;;;6225468;28;20495;-54
2021/01/19 01:04:12;;;;;;;41.60;26.43;;;-0.40;97.80;;;;;;6225558;28;20475;-54
2021/01/19 01:07:15;;;;;;;39.73;25.83;;;-0.40;98.10;;;;;;6225439;28;20471;-54
2021/01/19 01:10:18;;;;;;;38.60;27.03;;;-0.40;98.00;;;;;;6225187;28;20634;-55
2021/01/19 01:13:21;;;;;;;50.03;28.70;;;-0.30;98.30;;;;;;6225417;28;20491;-54
2021/01/19 01:16:23;;;;;;;40.90;26.73;;;-0.40;98.20;;;;;;6225286;28;20472;-54
2021/01/19 01:19:25;;;;;;;38.80;27.43;;;-0.40;98.30;;;;;;6225193;28;20471;-54
2021/01/19 01:22:28;;;;;;;41.30;25.87;;;-0.40;98.40;;;;;;6225314;28;20491;-54
2021/01/19 01:25:30;;;;;;;41.00;26.57;;;-0.40;98.30;;;;;;6225157;28;20483;-54
2021/01/19 01:28:33;;;;;;;44.93;27.00;;;-0.30;98.20;;;;;;6225675;28;20487;-54
2021/01/19 01:31:35;;;;;;;36.97;25.30;;;-0.30;98.40;;;;;;6229834;28;20987;-54
2021/01/19 01:34:38;;;;;;;42.20;26.00;;;-0.40;98.40;;;;;;6229789;28;20557;-54
2021/01/19 01:37:47;;;;;;;43.93;28.33;;;-0.40;98.60;;;;;;6229461;28;20487;-55
2021/01/19 01:40:49;;;;;;;41.70;25.90;;;-0.30;98.70;;;;;;6229699;28;20476;-55
2021/01/19 01:43:52;;;;;;;40.20;28.30;;;-0.30;98.60;;;;;;6229855;28;20463;-54
2021/01/19 01:46:54;;;;;;;36.73;24.53;;;-0.40;98.60;;;;;;6229725;28;20460;-54
2021/01/19 01:49:57;;;;;;;41.83;25.63;;;-0.30;98.50;;;;;;6229349;28;20474;-54
2021/01/19 01:52:59;;;;;;;42.73;27.00;;;-0.30;98.60;;;;;;6229647;28;20482;-54
2021/01/19 01:56:01;;;;;;;38.20;25.30;;;-0.40;98.30;;;;;;6229432;28;20472;-54
2021/01/19 01:59:04;;;;;;;38.80;25.87;;;-0.30;98.20;;;;;;6229269;28;20486;-54
2021/01/19 02:02:10;;;;;;;40.13;25.73;;;-0.40;98.10;;;;;;6225034;28;20476;-54
2021/01/19 02:05:13;;;;;;;39.10;26.40;;;-0.40;98.40;;;;;;6229021;28;20472;-54
2021/01/19 02:08:23;;;;;;;38.17;26.77;;;-0.40;98.70;;;;;;6228935;28;20471;-54
2021/01/19 02:11:36;;;;;;;38.83;25.73;;;-0.40;98.70;;;;;;6228907;28;21087;-54
2021/01/19 02:14:46;;;;;;;43.07;28.33;;;-0.40;98.80;;;;;;6229047;28;20482;-54
2021/01/19 02:17:57;;;;;;;44.77;30.03;;;-0.60;99.40;;;;;;6228786;28;20586;-54
2021/01/19 02:21:39;;;;;;;52.67;33.03;;;-0.60;99.30;;;;;;6228719;28;20522;-54
2021/01/19 02:24:52;;;;;;;59.30;34.33;;;-0.60;99.20;;;;;;6112558;28;20585;-54
2021/01/19 02:28:10;;;;;;;53.47;33.03;;;-0.60;99.40;;;;;;6228895;28;20472;-54
2021/01/19 02:31:27;;;;;;;48.90;31.60;;;-0.70;99.30;;;;;;6228490;28;20469;-54
2021/01/19 02:34:37;;;;;;;50.27;30.93;;;-0.60;99.40;;;;;;6228424;28;20468;-54
2021/01/19 02:37:48;;;;;;;47.33;29.33;;;-0.60;99.40;;;;;;6228092;28;20480;-54
2021/01/19 02:40:54;;;;;;;55.13;31.17;;;-0.50;99.40;;;;;;6227257;28;20472;-54
2021/01/19 02:44:07;;;;;;;36.37;27.30;;;-0.50;99.20;;;;;;6228480;28;20472;-54
2021/01/19 02:47:09;;;;;;;41.37;26.90;;;-0.50;99.20;;;;;;6228190;28;20483;-54
2021/01/19 02:50:13;;;;;;;44.30;26.87;;;-0.50;99.20;;;;;;6228061;28;20491;-54
2021/01/19 02:53:17;;;;;;;42.37;27.60;;;-0.40;99.10;;;;;;6228155;28;20479;-54
2021/01/19 02:56:24;;;;;;;37.17;25.07;;;-0.50;99.00;;;;;;6227759;28;20824;-54
2021/01/19 02:59:33;;;;;;;45.40;31.30;;;-0.50;99.40;;;;;;6227789;28;20476;-54
2021/01/19 03:02:39;;;;;;;46.57;28.53;;;-0.60;99.20;;;;;;6227865;28;20468;-55
2021/01/19 03:05:43;;;;;;;46.40;25.60;;;-0.60;99.70;;;;;;6218512;28;20491;-54
2021/01/19 03:08:49;;;;;;;42.17;25.20;;;-0.60;99.30;;;;;;6227737;28;20491;-54
2021/01/19 03:11:54;;;;;;;39.57;25.27;;;-0.60;99.30;;;;;;6227654;28;20465;-54
2021/01/19 03:14:58;;;;;;;28.33;20.37;;;-0.60;99.70;;;;;;6227521;28;20483;-54
2021/01/19 03:18:00;;;;;;;33.07;23.10;;;-0.60;99.20;;;;;;6227350;28;20560;-54
2021/01/19 03:21:05;;;;;;;41.50;25.27;;;-0.70;99.30;;;;;;6227292;28;20551;-55
2021/01/19 03:24:08;;;;;;;37.17;23.30;;;-0.70;99.40;;;;;;6227232;28;20483;-54
2021/01/19 03:27:10;;;;;;;37.00;23.23;;;-0.70;99.30;;;;;;6227255;28;20482;-54
2021/01/19 03:30:13;;;;;;;33.20;23.83;;;-0.70;99.40;;;;;;6227270;28;20483;-54
2021/01/19 03:33:16;;;;;;;32.90;21.53;;;-0.80;99.40;;;;;;6226616;28;20456;-55
2021/01/19 03:36:19;;;;;;;32.10;21.97;;;-0.90;99.70;;;;;;6216132;28;20481;-54
2021/01/19 03:39:21;;;;;;;32.37;19.60;;;-1.00;99.70;;;;;;6202153;28;20480;-56
2021/01/19 03:42:24;;;;;;;31.07;20.67;;;-0.90;99.90;;;;;;6202634;28;20441;-55
2021/01/19 03:45:27;;;;;;;37.87;22.20;;;-0.90;99.60;;;;;;6202586;28;20445;-56
2021/01/19 03:48:29;;;;;;;28.93;21.23;;;-0.90;99.50;;;;;;6202350;28;20615;-54
2021/01/19 03:51:32;;;;;;;29.77;20.57;;;-1.00;99.90;;;;;;6202527;28;20441;-54
2021/01/19 03:54:34;;;;;;;32.63;21.80;;;-1.00;99.70;;;;;;6202098;28;20801;-54
2021/01/19 03:57:37;;;;;;;34.97;20.30;;;-1.00;99.70;;;;;;6202284;28;20457;-54
2021/01/19 04:00:39;;;;;;;31.27;19.57;;;-0.90;99.80;;;;;;6202431;28;20542;-54
2021/01/19 04:03:41;;;;;;;36.87;21.47;;;-1.00;99.70;;;;;;6202280;28;20469;-54
2021/01/19 04:06:44;;;;;;;32.00;21.17;;;-1.00;99.90;;;;;;6197401;28;20469;-54
2021/01/19 04:09:46;;;;;;;31.80;19.33;;;-1.10;99.80;;;;;;6201880;28;20963;-54
2021/01/19 04:12:49;;;;;;;31.17;20.37;;;-1.10;99.80;;;;;;6202146;28;20487;-54
2021/01/19 04:15:51;;;;;;;30.00;20.87;;;-1.10;99.90;;;;;;6201731;28;20762;-54
2021/01/19 04:18:53;;;;;;;30.27;19.47;;;-1.10;99.80;;;;;;6201603;28;20473;-54
2021/01/19 04:21:56;;;;;;;27.17;19.60;;;-1.10;99.60;;;;;;6201797;28;20476;-54
2021/01/19 04:24:58;;;;;;;35.37;21.17;;;-1.10;99.60;;;;;;6201505;28;20476;-54
2021/01/19 04:28:03;;;;;;;34.13;20.60;;;-1.10;99.40;;;;;;6201693;28;20499;-54
2021/01/19 04:31:05;;;;;;;28.37;18.97;;;-1.10;99.60;;;;;;6201743;28;20484;-54
2021/01/19 04:34:08;;;;;;;26.60;19.17;;;-1.20;99.40;;;;;;6201725;28;20476;-54
2021/01/19 04:37:11;;;;;;;27.10;18.23;;;-1.30;99.80;;;;;;6218917;28;20475;-55
2021/01/19 04:40:13;;;;;;;27.00;16.80;;;-1.40;99.90;;;;;;6225509;28;20472;-55
2021/01/19 04:43:17;;;;;;;29.43;18.87;;;-1.30;99.90;;;;;;6225977;28;20468;-55
2021/01/19 04:46:21;;;;;;;25.07;17.07;;;-1.30;99.80;;;;;;6225822;28;20487;-54
2021/01/19 04:49:24;;;;;;;27.53;19.73;;;-1.20;99.60;;;;;;6225448;28;20480;-54
2021/01/19 04:52:30;;;;;;;34.60;19.27;;;-1.20;99.50;;;;;;6225657;28;20479;-53
2021/01/19 04:55:37;;;;;;;24.43;16.60;;;-1.20;99.30;;;;;;6225656;28;20484;-53
2021/01/19 04:58:43;;;;;;;25.20;17.50;;;-1.30;99.40;;;;;;6225491;28;20486;-54
2021/01/19 05:02:25;;;;;;;27.80;16.57;;;-1.40;99.50;;;;;;6225489;28;20476;-54
2021/01/19 05:05:57;;;;;;;25.60;16.73;;;-1.50;99.70;;;;;;6176276;28;20819;-54
2021/01/19 05:09:08;;;;;;;26.10;17.07;;;-1.50;99.90;;;;;;6216461;28;20931;-54
2021/01/19 05:12:19;;;;;;;29.03;18.70;;;-1.40;99.90;;;;;;6221030;28;20468;-54
2021/01/19 05:15:22;;;;;;;28.93;18.13;;;-1.40;99.70;;;;;;6225644;28;20413;-55
2021/01/19 05:18:24;;;;;;;27.23;17.23;;;-1.40;99.90;;;;;;6224904;28;20960;-55
2021/01/19 05:21:27;;;;;;;25.93;16.90;;;-1.50;99.80;;;;;;6225052;28;20455;-54
2021/01/19 05:24:30;;;;;;;20.43;14.90;;;-1.50;99.90;;;;;;6224986;28;20772;-53
2021/01/19 05:27:32;;;;;;;25.60;15.17;;;-1.50;99.90;;;;;;6225287;28;20537;-54
2021/01/19 05:30:35;;;;;;;23.83;15.83;;;-1.50;99.90;;;;;;6225074;28;20495;-54
2021/01/19 05:33:37;;;;;;;24.70;16.27;;;-1.50;99.90;;;;;;6224962;28;20470;-54
2021/01/19 05:36:43;;;;;;;25.07;15.53;;;-1.50;99.90;;;;;;6225002;28;20543;-54
2021/01/19 05:39:46;;;;;;;25.40;15.30;;;-1.50;99.80;;;;;;6225026;28;20468;-54
2021/01/19 05:42:48;;;;;;;27.43;16.80;;;-1.50;99.80;;;;;;6225191;28;20483;-54
2021/01/19 05:45:51;;;;;;;25.10;15.40;;;-1.60;99.70;;;;;;6224943;28;20482;-54
2021/01/19 05:48:59;;;;;;;22.07;15.93;;;-1.60;99.70;;;;;;6225139;28;20526;-55
2021/01/19 05:52:04;;;;;;;29.03;14.63;;;-1.60;99.70;;;;;;6224910;28;20483;-55
2021/01/19 05:55:08;;;;;;;21.97;13.60;;;-1.70;99.90;;;;;;6224740;28;20957;-55
2021/01/19 05:58:14;;;;;;;24.30;15.40;;;-1.60;99.90;;;;;;6224462;28;20475;-56
2021/01/19 06:01:30;;;;;;;18.20;13.77;;;-1.60;99.90;;;;;;6224823;28;20476;-55
2021/01/19 06:04:38;;;;;;;17.07;13.27;;;-1.60;99.90;;;;;;6224759;28;20622;-54
2021/01/19 06:07:43;;;;;;;19.73;13.37;;;-1.60;99.90;;;;;;6224561;28;20464;-55
2021/01/19 06:10:46;;;;;;;21.57;13.57;;;-1.60;99.90;;;;;;6224235;28;20971;-55
2021/01/19 06:13:51;;;;;;;18.70;13.13;;;-1.60;99.90;;;;;;6224783;28;20483;-54
2021/01/19 06:17:11;;;;;;;24.60;16.07;;;-1.50;99.90;;;;;;6223018;28;20486;-54
2021/01/19 06:20:14;;;;;;;23.67;14.00;;;-1.60;99.90;;;;;;6228676;28;20546;-55
2021/01/19 06:23:17;;;;;;;20.43;13.60;;;-1.60;99.80;;;;;;6228850;28;20463;-55
2021/01/19 06:26:22;;;;;;;17.77;13.50;;;-1.50;99.60;;;;;;6228709;28;20555;-55
2021/01/19 06:29:26;;;;;;;19.40;14.63;;;-1.50;99.70;;;;;;6228532;28;20479;-54
2021/01/19 06:32:30;;;;;;;20.07;13.50;;;-1.50;99.60;;;;;;6228182;28;20983;-55
2021/01/19 06:35:41;;;;;;;18.90;13.80;;;-1.60;99.60;;;;;;6228429;28;20472;-54
2021/01/19 06:38:47;;;;;;;22.87;13.50;;;-1.40;99.40;;;;;;6228085;28;20492;-54
2021/01/19 06:41:58;;;;;;;19.93;13.83;;;-1.50;99.30;;;;;;6228148;28;20785;-54
2021/01/19 06:45:03;;;;;;;18.40;14.40;;;-1.40;99.30;;;;;;6228000;28;21102;-54
2021/01/19 06:48:06;;;;;;;17.13;13.30;;;-1.40;99.10;;;;;;6227894;28;20480;-54
2021/01/19 06:51:11;;;;;;;17.20;13.30;;;-1.40;99.20;;;;;;6228123;28;20476;-55
2021/01/19 06:54:20;;;;;;;18.17;12.37;;;-1.40;99.40;;;;;;6227871;28;20472;-54
2021/01/19 06:57:32;;;;;;;14.33;10.70;;;-1.30;99.30;;;;;;6228058;28;20452;-55
2021/01/19 07:00:39;;;;;;;17.80;13.43;;;-1.30;99.20;;;;;;6227816;28;20451;-54
2021/01/19 07:03:43;;;;;;;21.33;14.87;;;-1.20;99.20;;;;;;6227779;28;20468;-54
2021/01/19 07:07:06;;;;;;;20.77;15.60;;;-1.10;99.00;;;;;;6227874;28;20475;-54
2021/01/19 07:10:22;;;;;;;23.20;16.73;;;-1.00;99.00;;;;;;6227591;28;20476;-54
2021/01/19 07:13:26;;;;;;;24.17;17.60;;;-0.90;98.90;;;;;;6227915;28;20484;-54
2021/01/19 07:16:37;;;;;;;26.47;17.23;;;-1.00;98.30;;;;;;6227446;28;20480;-57
2021/01/19 07:19:47;;;;;;;20.20;16.23;;;-0.90;98.40;;;;;;6218288;28;20551;-53
2021/01/19 07:22:58;;;;;;;18.80;16.67;;;-0.90;98.40;;;;;;6227340;28;20964;-54
2021/01/19 07:26:00;;;;;;;25.63;15.17;;;-0.70;98.40;;;;;;6226519;28;20502;-54
2021/01/19 07:29:04;;;;;;;24.17;17.97;;;-0.70;98.20;;;;;;6226992;28;20476;-59
2021/01/19 07:32:11;;;;;;;18.20;14.40;;;-0.60;98.10;;;;;;6226857;28;20810;-59
2021/01/19 07:35:14;;;;;;;24.33;20.10;;;-0.50;98.20;;;;;;6227189;28;20479;-60
2021/01/19 07:38:22;;;;;;;20.73;17.10;;;-0.40;97.70;;;;;;6226893;28;20473;-54
2021/01/19 07:41:26;;;;;;;22.70;16.87;;;-0.20;97.60;;;;;;6226590;28;20476;-59
2021/01/19 07:44:29;;;;;;;22.43;15.33;;;-0.10;97.40;;;;;;6226799;28;20480;-60
2021/01/19 07:47:47;;;;;;;19.37;15.10;;;0.00;97.00;;;;;;6226455;28;20472;-60
2021/01/19 07:50:49;;;;;;;21.47;14.20;;;0.10;96.90;;;;;;6227012;28;20502;-59
2021/01/19 07:53:52;;;;;;;20.40;13.43;;;0.10;97.00;;;;;;6226590;28;20826;-58
2021/01/19 07:56:55;;;;;;;18.33;14.03;;;0.20;96.90;;;;;;6226691;28;20497;-59
2021/01/19 08:00:04;;;;;;;19.47;14.43;;;0.30;96.90;;;;;;6226145;28;20480;-58
2021/01/19 08:03:06;;;;;;;17.20;12.50;;;0.40;96.40;;;;;;6225710;28;20503;-59
2021/01/19 08:06:10;;;;;;;21.00;13.50;;;0.50;96.40;;;;;;6226516;28;20472;-58
2021/01/19 08:09:14;;;;;;;15.33;11.10;;;0.60;96.30;;;;;;6225897;28;20483;-59
2021/01/19 08:12:16;;;;;;;13.93;10.13;;;0.70;96.00;;;;;;6226008;28;20479;-59
2021/01/19 08:15:20;;;;;;;13.00;9.33;;;0.70;95.70;;;;;;6225782;28;20932;-59
2021/01/19 08:18:36;;;;;;;14.23;10.77;;;0.70;95.60;;;;;;6225352;28;21015;-62
2021/01/19 08:21:48;;;;;;;11.03;8.80;;;0.80;95.60;;;;;;6212328;28;20596;-62
2021/01/19 08:24:59;;;;;;;12.27;8.33;;;1.10;95.60;;;;;;6225397;28;20479;-63
2021/01/19 08:28:02;;;;;;;10.70;9.60;;;1.30;95.40;;;;;;6225652;28;20460;-59
2021/01/19 08:31:15;;;;;;;12.13;8.10;;;1.50;95.50;;;;;;6225811;28;20479;-60
2021/01/19 08:34:20;;;;;;;8.47;6.10;;;1.80;95.00;;;;;;6225965;28;20558;-60
2021/01/19 08:37:26;;;;;;;9.33;6.90;;;2.00;94.80;;;;;;6225054;28;20486;-61
2021/01/19 08:40:29;;;;;;;8.43;6.87;;;2.30;94.30;;;;;;6224737;28;20482;-61
2021/01/19 08:43:33;;;;;;;12.23;6.63;;;2.60;93.90;;;;;;6225364;28;20522;-60
2021/01/19 08:46:36;;;;;;;8.40;6.23;;;2.80;93.40;;;;;;6225102;28;20493;-58
2021/01/19 08:49:39;;;;;;;15.23;9.63;;;3.00;92.90;;;;;;6225445;28;20592;-61
2021/01/19 08:52:41;;;;;;;26.73;14.97;;;3.20;92.30;;;;;;6225813;28;20471;-61
2021/01/19 08:55:44;;;;;;;20.80;10.93;;;3.40;92.00;;;;;;6224719;28;20573;-60
2021/01/19 08:58:46;;;;;;;13.40;8.63;;;3.60;91.80;;;;;;6225277;28;20480;-62
2021/01/19 09:01:50;;;;;;;10.67;7.20;;;3.80;91.30;;;;;;6225063;28;20472;-62
2021/01/19 09:04:52;;;;;;;13.53;7.63;;;3.90;90.90;;;;;;6225239;28;20480;-61
2021/01/19 09:07:56;;;;;;;14.80;7.57;;;4.10;90.80;;;;;;6224745;28;20838;-61
2021/01/19 09:11:03;;;;;;;8.00;7.10;;;4.20;90.40;;;;;;6224719;28;20472;-61
2021/01/19 09:14:26;;;;;;;7.43;6.00;;;4.40;90.20;;;;;;6224663;28;20468;-59
2021/01/19 09:17:29;;;;;;;9.73;7.43;;;4.70;90.00;;;;;;6224446;28;20905;-61
2021/01/19 09:20:31;;;;;;;26.30;20.33;;;4.80;89.60;;;;;;6218611;28;20472;-61
2021/01/19 09:23:35;;;;;;;32.77;22.10;;;4.60;88.70;;;;;;6224409;28;20476;-61
2021/01/19 09:26:46;;;;;;;36.13;25.57;;;4.50;89.10;;;;;;6220443;28;20563;-61
2021/01/19 09:29:48;;;;;;;34.83;26.07;;;4.50;89.00;;;;;;6224273;28;20483;-59
2021/01/19 09:32:52;;;;;;;36.53;26.27;;;4.30;88.80;;;;;;6224530;28;20475;-62
2021/01/19 09:35:54;;;;;;;37.97;28.93;;;4.20;90.00;;;;;;6224387;28;20480;-62
2021/01/19 09:38:58;;;;;;;41.37;28.47;;;4.30;90.00;;;;;;6224487;28;20489;-61
2021/01/19 09:42:03;;;;;;;39.47;31.30;;;4.40;89.50;;;;;;6224474;28;20550;-60
2021/01/19 09:45:09;;;;;;;41.33;30.37;;;4.40;88.80;;;;;;6224687;28;20769;-59
2021/01/19 09:48:13;;;;;;;42.53;29.57;;;4.40;88.90;;;;;;6224444;28;20530;-60
2021/01/19 09:51:25;;;;;;;41.30;28.43;;;4.50;89.30;;;;;;6227783;28;20477;-58
2021/01/19 09:54:27;;;;;;;43.60;28.93;;;4.70;88.50;;;;;;6228664;28;20590;-61
2021/01/19 09:57:29;;;;;;;42.00;26.93;;;4.70;87.60;;;;;;6228931;28;20863;-60
2021/01/19 10:00:33;;;;;;;40.83;28.53;;;4.80;87.20;;;;;;6229205;28;20519;-62
2021/01/19 10:03:37;;;;;;;42.53;28.10;;;5.00;87.50;;;;;;6228698;28;20773;-61
2021/01/19 10:06:39;;;;;;;40.50;26.47;;;5.10;86.80;;;;;;6228753;28;20801;-64
2021/01/19 10:09:43;;;;;;;35.87;24.63;;;5.20;86.30;;;;;;6229103;28;20534;-63
2021/01/19 10:12:47;;;;;;;44.33;25.73;;;5.30;85.80;;;;;;6228864;28;20480;-62
2021/01/19 10:15:57;;;;;;;35.47;24.00;;;5.40;85.50;;;;;;6228882;28;20464;-61
2021/01/19 10:19:00;;;;;;;37.37;23.93;;;5.50;85.50;;;;;;6228598;28;20468;-62
2021/01/19 10:22:05;;;;;;;37.17;23.20;;;5.60;85.00;;;;;;6227991;28;20963;-65
2021/01/19 10:25:09;;;;;;;36.00;24.57;;;5.70;85.10;;;;;;6228275;28;20472;-58
2021/01/19 10:28:11;;;;;;;28.00;22.50;;;5.90;84.40;;;;;;6219434;28;20913;-62
2021/01/19 10:31:15;;;;;;;33.30;23.20;;;6.00;83.20;;;;;;6203956;28;20461;-62
2021/01/19 10:34:21;;;;;;;33.30;23.77;;;6.20;83.10;;;;;;6204319;28;20484;-63
2021/01/19 10:37:24;;;;;;;34.13;22.67;;;6.50;82.70;;;;;;6204083;28;20469;-64
2021/01/19 10:40:26;;;;;;;31.77;21.53;;;6.80;80.70;;;;;;6216779;28;20780;-60
2021/01/19 10:43:29;;;;;;;26.73;21.33;;;7.00;80.10;;;;;;6227986;28;20488;-64
2021/01/19 10:46:31;;;;;;;34.27;21.60;;;7.50;79.70;;;;;;6227575;28;20483;-62
2021/01/19 10:49:34;;;;;;;32.60;20.30;;;7.90;76.60;;;;;;6227992;28;20490;-61
2021/01/19 10:52:37;;;;;;;29.07;19.17;;;8.00;75.50;;;;;;6227731;28;20980;-60
2021/01/19 10:55:39;;;;;;;25.90;18.93;;;7.90;75.60;;;;;;6227738;28;20483;-60
2021/01/19 10:58:41;;;;;;;23.60;18.77;;;7.80;75.30;;;;;;6227711;28;20475;-61
2021/01/19 11:01:44;;;;;;;29.00;19.13;;;7.90;75.20;;;;;;6226564;28;20675;-59
2021/01/19 11:04:47;;;;;;;28.20;17.73;;;7.60;74.90;;;;;;6227629;28;20791;-59
2021/01/19 11:07:51;;;;;;;21.67;16.73;;;7.60;75.00;;;;;;6227522;28;20478;-57
2021/01/19 11:10:53;;;;;;;25.83;18.37;;;7.80;75.20;;;;;;6227158;28;20487;-62
2021/01/19 11:14:05;;;;;;;26.83;18.13;;;7.90;74.60;;;;;;6227395;28;20607;-62
2021/01/19 11:17:07;;;;;;;25.00;19.23;;;7.90;73.60;;;;;;6227111;28;20464;-62
2021/01/19 11:20:12;;;;;;;24.17;16.43;;;7.70;74.90;;;;;;6227017;28;20964;-62
2021/01/19 11:23:14;;;;;;;29.50;18.73;;;7.40;74.40;;;;;;6226947;28;20993;-62
2021/01/19 11:26:16;;;;;;;26.70;19.30;;;7.20;75.00;;;;;;6227119;28;20472;-64
2021/01/19 11:29:19;;;;;;;21.30;16.20;;;7.20;75.50;;;;;;6226612;28;20955;-59
2021/01/19 11:32:21;;;;;;;27.90;17.40;;;7.00;75.60;;;;;;6226855;28;20486;-61
2021/01/19 11:35:25;;;;;;;22.50;16.93;;;6.80;76.00;;;;;;6226820;28;20472;-58
2021/01/19 11:38:30;;;;;;;31.43;18.57;;;6.60;76.30;;;;;;6226752;28;20987;-61
2021/01/19 11:41:33;;;;;;;26.00;16.67;;;6.40;77.30;;;;;;6226876;28;20601;-59
2021/01/19 11:44:35;;;;;;;25.10;16.90;;;6.10;78.30;;;;;;6226564;28;20820;-59
2021/01/19 11:47:38;;;;;;;22.87;15.87;;;5.90;79.10;;;;;;6226324;28;20498;-58
2021/01/19 11:50:41;;;;;;;21.93;17.30;;;5.70;79.70;;;;;;6226565;28;21045;-60
2021/01/19 11:53:46;;;;;;;20.90;15.60;;;5.50;79.80;;;;;;6226605;28;20574;-60
2021/01/19 11:56:49;;;;;;;25.13;16.73;;;5.40;79.90;;;;;;6226328;28;20542;-60
2021/01/19 11:59:54;;;;;;;27.37;17.40;;;5.40;80.10;;;;;;6226378;28;20499;-62
2021/01/19 12:02:57;;;;;;;26.50;20.20;;;5.20;80.10;;;;;;6226475;28;20565;-60
2021/01/19 12:06:00;;;;;;;26.07;16.97;;;5.20;81.10;;;;;;6226683;28;20939;-57
2021/01/19 12:09:04;;;;;;;27.70;16.90;;;5.20;81.20;;;;;;6226098;28;20472;-59
2021/01/19 12:12:08;;;;;;;23.17;16.23;;;5.20;81.20;;;;;;6226048;28;20542;-56
2021/01/19 12:15:11;;;;;;;26.33;15.90;;;5.20;81.20;;;;;;6226051;28;20480;-61
2021/01/19 12:18:13;;;;;;;28.33;15.77;;;5.20;81.00;;;;;;6226098;28;20476;-61
2021/01/19 12:21:18;;;;;;;24.93;14.77;;;5.20;82.00;;;;;;6225387;28;20472;-58
2021/01/19 12:24:21;;;;;;;31.30;16.80;;;5.30;82.70;;;;;;6225953;28;20900;-57
2021/01/19 12:27:24;;;;;;;23.57;15.53;;;5.50;82.40;;;;;;6225512;28;20447;-58
2021/01/19 12:30:26;;;;;;;24.37;17.97;;;5.70;81.70;;;;;;6225936;28;20523;-56
2021/01/19 12:33:28;;;;;;;26.40;16.33;;;5.90;80.60;;;;;;6225856;28;20462;-57
2021/01/19 12:36:32;;;;;;;24.87;15.63;;;6.00;80.40;;;;;;6220826;28;20919;-57
2021/01/19 12:39:34;;;;;;;24.43;17.03;;;6.20;79.50;;;;;;6225545;28;20488;-62
2021/01/19 12:42:37;;;;;;;32.03;19.10;;;6.30;79.20;;;;;;6225784;28;20531;-62
2021/01/19 12:45:40;;;;;;;35.17;17.10;;;6.40;78.90;;;;;;6225738;28;20460;-62
2021/01/19 12:48:42;;;;;;;25.67;16.33;;;6.40;78.70;;;;;;6225768;28;20467;-59
2021/01/19 12:51:46;;;;;;;20.93;15.67;;;6.50;77.40;;;;;;6225210;28;20810;-61
2021/01/19 12:54:48;;;;;;;31.00;18.30;;;6.50;77.30;;;;;;6225141;28;20571;-60
2021/01/19 12:57:50;;;;;;;27.60;16.10;;;6.50;77.20;;;;;;6225187;28;20472;-56
2021/01/19 13:00:53;;;;;;;23.77;17.33;;;6.70;77.20;;;;;;6222905;28;20551;-57
2021/01/19 13:03:55;;;;;;;21.87;15.80;;;6.80;76.20;;;;;;6225060;28;20478;-57
2021/01/19 13:06:58;;;;;;;29.33;17.70;;;6.80;75.70;;;;;;6225130;28;20561;-57
2021/01/19 13:10:01;;;;;;;24.50;16.53;;;6.90;75.60;;;;;;6225046;28;20480;-57
2021/01/19 13:13:03;;;;;;;28.63;17.53;;;6.90;75.50;;;;;;6225111;28;20978;-56
2021/01/19 13:16:06;;;;;;;17.70;15.10;;;6.90;75.10;;;;;;6224575;28;20497;-57
2021/01/19 13:19:08;;;;;;;19.97;14.47;;;6.90;74.60;;;;;;6224697;28;20471;-57
2021/01/19 13:22:16;;;;;;;24.87;15.30;;;6.90;75.30;;;;;;6224267;28;20499;-60
2021/01/19 13:25:18;;;;;;;21.53;14.50;;;6.90;73.60;;;;;;6227140;28;20553;-60
2021/01/19 13:28:21;;;;;;;22.10;15.93;;;6.90;72.10;;;;;;6229906;28;20587;-63
2021/01/19 13:31:24;;;;;;;17.47;13.03;;;6.60;72.80;;;;;;6229441;28;20971;-63
2021/01/19 13:34:27;;;;;;;24.70;14.10;;;6.50;73.50;;;;;;6229719;28;20478;-56
2021/01/19 13:37:30;;;;;;;26.17;14.53;;;6.40;74.30;;;;;;6229236;28;20570;-56
2021/01/19 13:40:32;;;;;;;17.93;13.03;;;6.30;74.00;;;;;;6223918;28;20480;-56
2021/01/19 13:43:35;;;;;;;18.97;13.50;;;6.30;73.10;;;;;;6208826;28;20515;-56
2021/01/19 13:46:37;;;;;;;21.60;12.73;;;6.40;72.80;;;;;;6205021;28;20968;-56
2021/01/19 13:49:40;;;;;;;14.17;9.03;;;6.60;72.90;;;;;;6205140;28;20487;-56
2021/01/19 13:52:43;;;;;;;17.60;11.47;;;6.50;70.10;;;;;;6205213;28;20867;-57
2021/01/19 13:55:46;;;;;;;22.80;11.97;;;6.50;69.90;;;;;;6204556;28;20469;-56
2021/01/19 13:58:48;;;;;;;25.90;11.77;;;6.50;70.40;;;;;;6210029;28;20997;-56
2021/01/19 14:01:52;;;;;;;16.53;11.67;;;6.40;70.90;;;;;;6229193;28;20478;-56
2021/01/19 14:04:55;;;;;;;15.53;10.73;;;6.30;70.20;;;;;;6229457;28;21019;-57
2021/01/19 14:07:58;;;;;;;17.10;11.17;;;6.20;70.20;;;;;;6228983;28;20539;-57
2021/01/19 14:11:00;;;;;;;15.60;10.10;;;6.10;70.90;;;;;;6228655;28;20468;-57
2021/01/19 14:14:08;;;;;;;15.57;10.07;;;6.00;71.00;;;;;;6229225;28;20586;-57
2021/01/19 14:17:11;;;;;;;17.57;12.40;;;5.80;71.10;;;;;;6228582;28;20471;-57
2021/01/19 14:20:13;;;;;;;20.03;12.00;;;5.60;72.30;;;;;;6228583;28;20482;-57
2021/01/19 14:23:16;;;;;;;19.00;12.70;;;5.40;73.20;;;;;;6228785;28;20471;-56
2021/01/19 14:26:22;;;;;;;21.40;13.60;;;5.40;73.60;;;;;;6228666;28;20467;-57
2021/01/19 14:29:27;;;;;;;18.00;13.63;;;5.30;74.30;;;;;;6228118;28;20479;-57
2021/01/19 14:32:29;;;;;;;19.97;13.30;;;5.20;74.60;;;;;;6227879;28;20498;-57
2021/01/19 14:35:32;;;;;;;21.50;13.27;;;5.00;75.40;;;;;;6203306;28;20484;-57
2021/01/19 14:38:35;;;;;;;20.73;14.37;;;4.90;76.10;;;;;;6203141;28;20816;-57
2021/01/19 14:41:39;;;;;;;25.10;14.73;;;4.90;76.20;;;;;;6203901;28;20473;-57
2021/01/19 14:44:42;;;;;;;24.40;14.33;;;4.90;76.80;;;;;;6204219;28;20559;-56
2021/01/19 14:47:44;;;;;;;21.30;13.93;;;4.80;76.80;;;;;;6194802;28;20882;-57
2021/01/19 14:50:47;;;;;;;20.27;14.30;;;4.70;77.40;;;;;;6203757;28;20476;-56
2021/01/19 14:53:50;;;;;;;25.27;15.53;;;4.70;77.60;;;;;;6203278;28;20552;-57
2021/01/19 14:56:53;;;;;;;21.50;13.07;;;4.70;77.70;;;;;;6203509;28;20473;-56
2021/01/19 14:59:55;;;;;;;18.90;14.43;;;4.60;77.60;;;;;;6217426;28;20479;-56
2021/01/19 15:02:57;;;;;;;20.00;13.60;;;4.60;77.60;;;;;;6227641;28;20472;-56
2021/01/19 15:06:00;;;;;;;19.47;13.80;;;4.50;77.60;;;;;;6227542;28;20504;-56
2021/01/19 15:09:04;;;;;;;14.80;11.90;;;4.50;77.30;;;;;;6227297;28;20476;-57
2021/01/19 15:12:08;;;;;;;25.67;12.77;;;4.40;77.10;;;;;;6227431;28;21090;-56
2021/01/19 15:15:12;;;;;;;18.37;13.70;;;4.30;76.90;;;;;;6227090;28;21007;-57
2021/01/19 15:18:15;;;;;;;31.97;13.37;;;4.20;77.20;;;;;;6221208;28;20515;-57
2021/01/19 15:21:18;;;;;;;33.40;13.60;;;4.20;78.00;;;;;;6210511;28;20480;-57
2021/01/19 15:24:21;;;;;;;23.50;13.23;;;4.20;78.80;;;;;;6221160;28;21039;-61
2021/01/19 15:27:23;;;;;;;20.43;12.97;;;4.20;78.40;;;;;;6226738;28;20470;-60
2021/01/19 15:30:26;;;;;;;22.83;13.40;;;4.20;78.60;;;;;;6213346;28;20437;-61
2021/01/19 15:33:29;;;;;;;27.57;12.67;;;4.20;78.20;;;;;;6224098;28;20466;-59
2021/01/19 15:36:31;;;;;;;20.70;11.60;;;4.20;78.20;;;;;;6218515;28;20468;-57
2021/01/19 15:39:36;;;;;;;20.63;12.27;;;4.20;78.00;;;;;;6214054;28;20695;-57
2021/01/19 15:42:38;;;;;;;15.93;11.20;;;4.10;77.20;;;;;;6214860;28;20445;-57